• Join FlightAware (Why Join?)
  • Login
  • US Flag 
Rudolph Flight #1: Arrived! 
05:09PM EST


 

Airport Tracker/Info


-or-


 

Live Flight TrackerFlight Track Log ✈ SWA1880 ✈ 13-May-2013 ✈ KHOU - KTPA

Flight Track Log - Related Links

Times and Time Zones

All times are in EDT time to prevent confusion due to time zone crossing. See the SWA1880 flight status page for this flight to view local times or setup timezone preferences in your user account.

Time Position Orientation Groundspeed Altitude Reporting Facility
EDT Latitude Longitude Course Direction KTS MPH feet Rate Location/Type
06:19PM 29.6331 -95.2631 146° Southeast 160 184 900  Level Houston Center
06:20PM 29.6194 -95.2525 146° Southeast 169 194 1,700 2,340 Climbing Houston Center
06:20PM 29.5847 -95.2233 144° Southeast 207 238 3,500 2,160 Climbing Houston Center
06:22PM 29.5867 -95.1575 88° East 238 274 5,700 2,460 Climbing Houston Center
06:23PM 29.6014 -95.0781 78° East 259 298 8,600 2,280 Climbing Houston Center
06:24PM 29.6164 -94.9889 79° East 284 327 10,500 2,340 Climbing Houston Center
06:25PM 29.6369 -94.8625 79° East 334 384 13,500 2,580 Climbing Houston Center
06:26PM 29.6542 -94.7553 80° East 342 394 15,900 2,040 Climbing Houston Center
06:27PM 29.6653 -94.6417 84° East 357 411 17,800 1,560 Climbing Houston Center
06:28PM 29.6694 -94.5200 88° East 378 435 19,200 1,380 Climbing Houston Center
06:29PM 29.6744 -94.3925 87° East 397 457 20,700 1,440 Climbing Houston Center
06:30PM 29.6789 -94.2575 88° East 418 481 22,200 1,560 Climbing Houston Center
06:31PM 29.6844 -94.0933 88° East 427 491 24,000 1,500 Climbing Houston Center
06:32PM 29.6869 -93.9531 89° East 436 502 25,300 1,260 Climbing Houston Center
06:33PM 29.6847 -93.8072 91° East 452 520 26,700 1,200 Climbing Houston Center
06:34PM 29.6831 -93.6608 91° East 459 528 27,800 960 Climbing Houston Center
06:35PM 29.6803 -93.5097 91° East 472 543 28,700 840 Climbing Houston Center
06:36PM 29.6783 -93.3253 91° East 485 558 29,600 960 Climbing Houston Center
06:37PM 29.6767 -93.1658 91° East 497 572 30,700 1,080 Climbing Houston Center
06:38PM 29.6742 -93.0061 91° East 501 577 31,900 960 Climbing Houston Center
06:39PM 29.6719 -92.8433 91° East 509 586 32,800 1,020 Climbing Houston Center
06:40PM 29.6686 -92.6811 91° East 512 589 34,100 1,020 Climbing Houston Center
06:41PM 29.6653 -92.5203 91° East 506 582 35,000 420 Climbing Houston Center
06:42PM 29.6553 -92.3258 93° East 508 585 35,000  Level Houston Center
06:43PM 29.6211 -92.1697 104° East 507 583 35,000  Level Houston Center
06:44PM 29.5889 -92.0125 103° East 508 585 35,000  Level Houston Center
06:45PM 29.5553 -91.8558 104° East 507 583 35,000  Level Houston Center
06:46PM 29.5181 -91.6778 103° East 508 585 35,000  Level Houston Center
06:47PM 29.4856 -91.5194 103° East 511 588 35,000  Level Houston Center
06:48PM 29.4511 -91.3625 104° East 510 587 35,000  Level Houston Center
06:49PM 29.4178 -91.2056 104° East 511 588 35,000  Level Houston Center
06:50PM 29.3842 -91.0481 104° East 511 588 35,000  Level Houston Center
06:51PM 29.3497 -90.8900 104° East 513 590 35,000  Level Houston Center
06:52PM 29.3075 -90.7019 104° East 512 589 35,000  Level Houston Center
06:54PM 29.2733 -90.5444 104° East 512 589 35,000  Level Houston Center
06:55PM 29.2381 -90.3869 104° East 514 592 35,000  Level Houston Center
06:56PM 29.2033 -90.2294 104° East 514 592 35,000  Level Houston Center
06:57PM 29.1681 -90.0706 104° East 518 596 35,000  Level Houston Center
06:58PM 29.1353 -89.9103 103° East 520 598 35,000  Level Houston Center
06:59PM 29.0967 -89.7208 103° East 514 592 35,000  Level Houston Center
07:00PM 29.0639 -89.5597 103° East 520 598 35,000 -60 Level Houston Center
07:01PM 29.0311 -89.4022 103° East 517 595 34,900  Descending Houston Center
07:02PM 28.9975 -89.2456 104° East 513 590 35,000  Climbing Houston Center
07:03PM 28.9639 -89.0839 103° East 518 596 35,000  Level Houston Center
07:04PM 28.9242 -88.8919 103° East 520 598 35,000  Level Houston Center
07:05PM 28.8903 -88.7319 104° East 521 600 35,000  Level Houston Center
07:06PM 28.8497 -88.5767 107° East 515 593 35,000 -60 Level Houston Center
07:07PM 28.8064 -88.4222 108° East 512 589 34,900  Descending Houston Center
07:08PM 28.7628 -88.2678 108° East 511 588 35,000  Climbing Houston Center
07:09PM 28.7194 -88.1125 108° East 514 592 35,000 -60 Level Houston Center
07:10PM 28.6764 -87.9567 107° East 510 587 34,900  Descending Houston Center
07:11PM 28.6247 -87.7722 108° East 510 587 35,000  Climbing Houston Center
07:12PM 28.5800 -87.6206 109° East 507 583 35,000  Level Houston Center
07:13PM 28.5525 -87.5242 108° East 494 568 35,000  Level Jacksonville Center
07:14PM 28.5061 -87.3664 108° East 509 586 35,000  Level Jacksonville Center
07:15PM 28.4631 -87.2181 108° East 514 592 35,000  Level Jacksonville Center
07:16PM 28.4222 -87.0700 107° East 501 577 35,000 -120 Level Jacksonville Center
07:17PM 28.3808 -86.9244 108° East 501 577 34,800 -720 Descending Jacksonville Center
07:18PM 28.3317 -86.7622 109° East 500 575 33,600 -900 Descending Jacksonville Center
07:19PM 28.2900 -86.6192 108° East 494 568 33,000 -360 Descending Jacksonville Center
07:20PM 28.2539 -86.4906 108° East 481 554 32,900  Descending Jacksonville Center
07:21PM 28.2081 -86.3381 109° East 483 556 33,000  Climbing Jacksonville Center
07:22PM 28.1581 -86.1764 109° East 502 578 33,000 -240 Level Jacksonville Center
07:23PM 28.1139 -86.0267 108° East 507 583 32,600 -780 Descending Jacksonville Center
07:24PM 28.0717 -85.8750 107° East 507 583 31,500 -900 Descending Jacksonville Center
07:25PM 28.0267 -85.7350 110° East 500 575 30,900 -180 Descending Jacksonville Center
07:27PM 27.9211 -85.3711 108° East 470 541 31,000  Climbing Miami Center
07:28PM 27.8800 -85.2178 107° East 482 555 31,000  Level Miami Center
07:29PM 27.8786 -85.0606 91° East 486 559 31,000  Level Miami Center
07:30PM 27.8800 -84.9247 89° East 486 559 31,000  Level Miami Center
07:31PM 27.8867 -84.7681 87° East 491 565 31,000  Level Miami Center
07:32PM 27.8869 -84.6133 90° East 491 565 31,000 -360 Level Miami Center
07:33PM 27.8972 -84.4592 86° East 496 571 30,300 -1,500 Descending Miami Center
07:34PM 27.8947 -84.3064 91° East 496 571 28,100 -2,220 Descending Miami Center
07:35PM 27.9000 -84.1614 88° East 478 550 25,900 -2,220 Descending Miami Center
07:36PM 27.9050 -84.0233 88° East 458 527 23,700 -2,160 Descending Miami Center
07:37PM 27.9036 -83.8847 91° East 441 507 21,600 -2,100 Descending Miami Center
07:38PM 27.9075 -83.7558 88° East 424 488 19,500 -1,860 Descending Miami Center
07:39PM 27.9053 -83.6314 91° East 412 474 17,900 -1,800 Descending Miami Center
07:40PM 27.9086 -83.5119 88° East 391 450 16,000 -1,980 Descending Miami Center
07:41PM 27.9119 -83.3947 88° East 379 436 14,000 -2,040 Descending Miami Center
07:42PM 27.9108 -83.2842 91° East 362 417 12,000 -1,800 Descending Miami Center
07:43PM 27.9133 -83.1764 88° East 352 405 10,500 -1,440 Descending Miami Center
07:44PM 27.8861 -83.0881 109° East 307 353 9,200 -1,440 Descending Miami Center
07:45PM 27.8481 -83.0039 117° Southeast 307 353 7,700 -1,140 Descending Miami Center
07:46PM 27.8094 -82.9244 119° Southeast 296 341 7,000 -360 Descending Miami Center
07:47PM 27.7753 -82.8453 116° Southeast 286 329 7,000 -480 Level Miami Center
07:48PM 27.7833 -82.8167 72° East 254 292 6,400 -1,320 Descending Tampa TRACON
07:49PM 27.7833 -82.7333 90° East 245 282 5,300 -1,140 Descending Tampa TRACON
07:50PM 27.7833 -82.6667 90° East 240 276 4,200 -1,140 Descending Tampa TRACON
07:51PM 27.7833 -82.5833 90° East 233 268 3,100 -780 Descending Tampa TRACON
07:52PM 27.8500 -82.5667 12° North 210 242 2,700 -720 Descending Tampa TRACON
07:53PM 27.8833 -82.5500 24° Northeast 142 163 1,700 -900 Descending Tampa TRACON
07:54PM 27.9167 -82.5500 360° North 132 152 1,000 -780 Descending Tampa TRACON
07:55PM 27.9667 -82.5167 19° North  Level FlightAware Approximate
08:02PM 27.9755 -82.5332 19° North  Level Estimated
08:03PM 27.9755 -82.5332 19° North  Level Estimated
08:04PM 27.9755 -82.5332 19° North  Level Estimated